createdAt,value
2023-03-06T00:01:05.057Z,21.63
2023-03-06T00:03:33.954Z,25.35
2023-03-06T00:06:02.786Z,24.95
2023-03-06T00:08:31.242Z,21.90
2023-03-06T00:10:59.827Z,25.73
2023-03-06T00:13:30.718Z,24.40
2023-03-06T00:16:01.157Z,27.77
2023-03-06T00:18:29.511Z,26.52
2023-03-06T00:20:58.193Z,23.90
2023-03-06T00:23:27.941Z,25.45
2023-03-06T00:25:56.521Z,34.28
2023-03-06T00:28:24.841Z,24.08
2023-03-06T00:30:53.481Z,29.23
2023-03-06T00:33:21.788Z,30.33
2023-03-06T00:35:50.453Z,27.75
2023-03-06T00:38:18.872Z,25.73
2023-03-06T00:40:47.638Z,25.33
2023-03-06T00:43:15.980Z,25.30
2023-03-06T00:45:44.795Z,27.77
2023-03-06T00:48:13.231Z,25.73
2023-03-06T00:50:41.956Z,26.48
2023-03-06T00:53:13.397Z,25.30
2023-03-06T00:55:45.788Z,23.80
2023-03-06T00:58:14.218Z,24.40
2023-03-06T01:00:43.944Z,30.23
2023-03-06T01:03:12.254Z,27.30
2023-03-06T01:05:41.088Z,27.77
2023-03-06T01:08:09.344Z,27.50
2023-03-06T01:10:41.204Z,27.00
2023-03-06T01:13:10.956Z,27.92
2023-03-06T01:15:39.501Z,27.55
2023-03-06T01:18:07.751Z,29.60
2023-03-06T01:20:38.500Z,27.38
2023-03-06T01:23:06.833Z,29.92
2023-03-06T01:25:35.545Z,25.63
2023-03-06T01:28:04.067Z,26.48
2023-03-06T01:30:32.804Z,26.60
2023-03-06T01:33:02.871Z,29.38
2023-03-06T01:35:31.492Z,28.35
2023-03-06T01:37:59.752Z,30.88
2023-03-06T01:40:28.388Z,30.77
2023-03-06T01:42:56.674Z,31.02
2023-03-06T01:45:25.253Z,29.23
2023-03-06T01:47:53.551Z,27.20
2023-03-06T01:50:22.418Z,29.90
2023-03-06T01:52:57.815Z,28.17
2023-03-06T01:55:33.453Z,29.10
2023-03-06T01:58:05.649Z,28.08
2023-03-06T02:00:34.536Z,27.52
2023-03-06T02:03:09.469Z,25.48
2023-03-06T02:05:40.926Z,31.13
2023-03-06T02:08:15.793Z,29.88
2023-03-06T02:11:13.901Z,30.13
2023-03-06T02:13:42.420Z,31.25
2023-03-06T02:16:12.005Z,29.20
2023-03-06T02:18:41.044Z,28.10
2023-03-06T02:21:12.648Z,26.00
2023-03-06T02:23:57.791Z,28.60
2023-03-06T02:26:27.277Z,29.33
2023-03-06T02:28:58.707Z,28.27
2023-03-06T02:31:31.482Z,30.48
2023-03-06T02:34:15.491Z,29.48
2023-03-06T02:36:50.749Z,27.30
2023-03-06T02:39:20.821Z,24.92
2023-03-06T02:41:49.794Z,28.63
2023-03-06T02:44:22.312Z,25.85
2023-03-06T02:46:51.037Z,28.63
2023-03-06T02:49:19.397Z,27.30
2023-03-06T02:51:48.478Z,26.65
2023-03-06T02:54:18.568Z,31.35
2023-03-06T02:56:47.627Z,31.20
2023-03-06T02:59:15.983Z,33.20
2023-03-06T03:01:44.656Z,28.88
2023-03-06T03:04:13.198Z,27.85
2023-03-06T03:06:42.980Z,27.75
2023-03-06T03:09:12.625Z,29.33
2023-03-06T03:11:41.252Z,29.92
2023-03-06T03:14:10.005Z,24.52
2023-03-06T03:16:39.288Z,25.95
2023-03-06T03:19:07.722Z,28.30
2023-03-06T03:21:36.559Z,25.88
2023-03-06T03:24:05.067Z,24.80
2023-03-06T03:26:33.695Z,29.95
2023-03-06T03:29:10.920Z,26.80
2023-03-06T03:31:39.687Z,25.92
2023-03-06T03:34:08.929Z,26.00
2023-03-06T03:36:40.691Z,25.90
2023-03-06T03:39:10.780Z,26.90
2023-03-06T03:41:39.887Z,27.75
2023-03-06T03:44:10.880Z,28.00
2023-03-06T03:46:39.788Z,29.27
2023-03-06T03:49:13.227Z,25.45
2023-03-06T03:51:42.033Z,27.83
2023-03-06T03:54:11.078Z,26.00
2023-03-06T03:59:22.123Z,28.98
2023-03-06T04:02:04.976Z,27.10
2023-03-06T04:04:38.627Z,25.48
2023-03-06T04:07:08.274Z,28.70
2023-03-06T04:09:38.086Z,28.27
2023-03-06T04:12:07.986Z,27.52
2023-03-06T04:14:38.064Z,26.23
2023-03-06T04:17:07.684Z,26.33
2023-03-06T04:19:36.623Z,27.48
2023-03-06T04:22:05.244Z,29.35
2023-03-06T04:24:36.583Z,30.10
2023-03-06T04:27:05.633Z,26.80
2023-03-06T04:29:33.965Z,29.02
2023-03-06T04:32:03.261Z,29.50
2023-03-06T04:34:31.659Z,27.50
2023-03-06T04:37:00.225Z,30.00
2023-03-06T04:39:28.647Z,26.60
2023-03-06T04:41:57.507Z,28.85
2023-03-06T04:44:25.957Z,28.25
2023-03-06T04:46:54.561Z,29.50
2023-03-06T04:49:22.868Z,27.02
2023-03-06T04:51:51.489Z,28.73
2023-03-06T04:54:19.787Z,26.90
2023-03-06T04:56:48.433Z,27.83
2023-03-06T04:59:16.792Z,27.20
2023-03-06T05:01:45.655Z,27.65
2023-03-06T05:04:14.247Z,25.85
2023-03-06T05:06:43.573Z,31.40
2023-03-06T05:09:12.117Z,27.25
2023-03-06T05:11:40.961Z,23.52
2023-03-06T05:14:09.485Z,24.05
2023-03-06T05:16:38.522Z,24.77
2023-03-06T05:19:07.076Z,24.60
2023-03-06T05:21:35.948Z,24.38
2023-03-06T05:24:04.810Z,24.40
2023-03-06T05:26:34.770Z,23.15
2023-03-06T05:29:03.294Z,22.77
2023-03-06T05:31:32.180Z,22.17
2023-03-06T05:34:00.927Z,26.40
2023-03-06T05:36:29.757Z,26.52
2023-03-06T05:38:58.280Z,24.52
2023-03-06T05:41:27.417Z,25.17
2023-03-06T05:43:57.159Z,20.50
2023-03-06T05:46:26.101Z,25.45
2023-03-06T05:48:58.125Z,27.23
2023-03-06T05:51:27.205Z,21.30
2023-03-06T05:53:55.816Z,24.90
2023-03-06T05:56:24.760Z,22.70
2023-03-06T05:58:53.320Z,21.30
2023-03-06T06:01:22.286Z,27.38
2023-03-06T06:03:50.998Z,24.95
2023-03-06T06:06:19.899Z,21.65
2023-03-06T06:08:48.435Z,24.55
2023-03-06T06:11:19.246Z,31.15
2023-03-06T06:13:49.028Z,25.88
2023-03-06T06:16:19.424Z,27.27
2023-03-06T06:18:47.950Z,23.98
2023-03-06T06:21:16.890Z,22.38
2023-03-06T06:23:45.475Z,24.75
2023-03-06T06:26:15.214Z,36.63
2023-03-06T06:28:44.264Z,26.40
2023-03-06T06:31:13.551Z,29.42
2023-03-06T06:33:42.148Z,28.98
2023-03-06T06:36:19.064Z,28.27
2023-03-06T06:38:47.794Z,25.38
2023-03-06T06:41:39.292Z,30.98
2023-03-06T06:44:11.532Z,29.67
2023-03-06T06:47:20.682Z,29.27
2023-03-06T06:49:28.972Z,31.65
2023-03-06T06:51:58.248Z,30.63
2023-03-06T06:54:26.940Z,27.33
2023-03-06T06:56:55.780Z,28.65
2023-03-06T06:59:24.361Z,29.67
2023-03-06T07:01:53.473Z,27.92
2023-03-06T07:04:22.070Z,30.02
2023-03-06T07:06:50.814Z,31.77
2023-03-06T07:09:20.275Z,31.83
2023-03-06T07:11:49.190Z,33.20
2023-03-06T07:14:17.857Z,32.65
2023-03-06T07:16:46.707Z,32.95
2023-03-06T07:19:15.370Z,35.13
2023-03-06T07:21:44.154Z,31.90
2023-03-06T07:24:12.599Z,29.48
2023-03-06T07:26:41.435Z,29.17
2023-03-06T07:29:09.905Z,30.17
2023-03-06T07:31:38.771Z,30.15
2023-03-06T07:34:07.459Z,32.55
2023-03-06T07:36:36.457Z,32.88
2023-03-06T07:39:04.931Z,34.65
2023-03-06T07:41:33.980Z,38.15
2023-03-06T07:44:02.588Z,39.08
2023-03-06T07:46:31.517Z,32.20
2023-03-06T07:49:00.199Z,30.33
2023-03-06T07:51:28.994Z,33.85
2023-03-06T07:53:57.466Z,36.42
2023-03-06T07:56:26.321Z,32.78
2023-03-06T07:58:56.097Z,35.25
2023-03-06T08:01:26.000Z,34.35
2023-03-06T08:03:54.690Z,35.70
2023-03-06T08:06:27.902Z,36.72
2023-03-06T08:08:57.052Z,33.33
2023-03-06T08:11:28.067Z,36.40
2023-03-06T08:13:57.679Z,35.63
2023-03-06T08:16:29.266Z,37.08
2023-03-06T08:18:57.958Z,32.25
2023-03-06T08:21:28.190Z,34.05
2023-03-06T08:23:56.713Z,40.63
2023-03-06T08:26:31.266Z,33.00
2023-03-06T08:29:00.943Z,38.78
2023-03-06T08:31:38.094Z,32.67
2023-03-06T08:34:14.547Z,35.42
2023-03-06T08:36:43.603Z,39.53
2023-03-06T08:39:12.296Z,37.90
2023-03-06T08:41:42.401Z,34.90
2023-03-06T08:44:11.045Z,32.65
2023-03-06T08:46:39.990Z,34.60
2023-03-06T08:49:09.518Z,30.63
2023-03-06T08:51:38.583Z,37.17
2023-03-06T08:54:07.593Z,38.38
2023-03-06T08:56:36.426Z,33.67
2023-03-06T08:59:06.100Z,30.92
2023-03-06T09:01:53.736Z,31.70
2023-03-06T09:04:22.101Z,32.40
2023-03-06T09:06:51.066Z,32.95
2023-03-06T09:09:19.464Z,31.23
2023-03-06T09:11:48.191Z,28.42
2023-03-06T09:14:16.531Z,39.20
2023-03-06T09:16:45.246Z,35.45
2023-03-06T09:19:13.663Z,33.00
2023-03-06T09:21:42.607Z,40.13
2023-03-06T09:24:11.003Z,33.63
2023-03-06T09:26:45.959Z,33.15
2023-03-06T09:29:16.522Z,40.40
2023-03-06T09:31:45.920Z,33.38
2023-03-06T09:34:14.505Z,37.30
2023-03-06T09:36:55.850Z,37.65
2023-03-06T09:39:26.467Z,34.50
2023-03-06T09:41:55.704Z,39.22
2023-03-06T09:44:35.075Z,35.88
2023-03-06T09:47:37.812Z,36.97
2023-03-06T09:50:37.513Z,42.33
2023-03-06T09:53:30.664Z,39.55
2023-03-06T09:56:13.838Z,34.03
2023-03-06T09:59:13.729Z,31.23
2023-03-06T10:01:42.778Z,36.38
2023-03-06T10:04:42.303Z,35.50
2023-03-06T10:07:25.983Z,35.80
2023-03-06T10:09:59.207Z,32.22
2023-03-06T10:12:39.438Z,41.72
2023-03-06T10:15:29.292Z,33.97
2023-03-06T10:17:57.707Z,35.40
2023-03-06T10:20:35.418Z,37.30
2023-03-06T10:23:34.867Z,32.33
2023-03-06T10:26:13.058Z,32.53
2023-03-06T10:29:29.870Z,29.60
2023-03-06T10:32:48.819Z,30.52
2023-03-06T10:35:24.305Z,32.30
2023-03-06T10:38:12.599Z,38.63
2023-03-06T10:41:03.842Z,31.13
2023-03-06T10:43:35.210Z,31.00
2023-03-06T10:46:05.533Z,34.25
2023-03-06T10:48:36.540Z,27.02
2023-03-06T10:51:23.273Z,27.65
2023-03-06T10:53:59.644Z,27.85
2023-03-06T10:56:33.656Z,28.98
2023-03-06T10:59:25.689Z,25.77
2023-03-06T11:01:59.003Z,30.20
2023-03-06T11:04:35.722Z,26.20
2023-03-06T11:07:15.893Z,29.08
2023-03-06T11:09:57.254Z,30.08
2023-03-06T11:12:41.083Z,28.38
2023-03-06T11:15:15.219Z,30.60
2023-03-06T11:18:00.018Z,28.27
2023-03-06T11:20:51.479Z,26.67
2023-03-06T11:23:32.751Z,27.70
2023-03-06T11:26:24.725Z,27.23
2023-03-06T11:29:24.773Z,24.80
2023-03-06T11:31:57.448Z,28.13
2023-03-06T11:34:51.649Z,29.53
2023-03-06T11:38:07.257Z,25.98
2023-03-06T11:40:47.235Z,28.65
2023-03-06T11:43:30.799Z,28.08
2023-03-06T11:46:31.558Z,26.08
2023-03-06T11:49:31.305Z,29.02
2023-03-06T11:52:05.512Z,25.70
2023-03-06T11:54:34.542Z,28.55
2023-03-06T11:57:06.412Z,27.52
2023-03-06T11:59:56.726Z,26.80
2023-03-06T12:02:46.385Z,35.17
2023-03-06T12:05:41.913Z,35.42
2023-03-06T12:08:34.705Z,27.35
2023-03-06T12:11:23.524Z,31.80
2023-03-06T12:14:15.860Z,29.35
2023-03-06T12:17:08.629Z,28.52
2023-03-06T12:20:24.474Z,30.25
2023-03-06T12:23:34.305Z,48.35
2023-03-06T12:26:46.684Z,43.15
2023-03-06T12:29:28.634Z,44.85
2023-03-06T12:32:23.099Z,47.90
2023-03-06T12:35:08.966Z,49.45
2023-03-06T12:37:53.763Z,41.58
2023-03-06T12:41:08.316Z,50.28
2023-03-06T12:44:16.366Z,42.35
2023-03-06T12:46:50.049Z,34.78
2023-03-06T12:49:32.661Z,44.78
2023-03-06T12:52:02.270Z,38.28
2023-03-06T12:54:33.600Z,38.47
2023-03-06T12:57:02.490Z,34.35
2023-03-06T12:59:49.863Z,37.92
2023-03-06T13:02:33.548Z,31.35
2023-03-06T13:05:11.089Z,32.22
2023-03-06T13:07:56.152Z,31.00
2023-03-06T13:10:35.617Z,28.73
2023-03-06T13:13:14.308Z,37.25
2023-03-06T13:15:47.417Z,29.27
2023-03-06T13:18:22.355Z,25.38
2023-03-06T13:20:56.939Z,27.27
2023-03-06T13:23:38.846Z,30.10
2023-03-06T13:26:12.050Z,29.88
2023-03-06T13:28:54.410Z,30.75
2023-03-06T13:31:36.603Z,24.52
2023-03-06T13:34:48.338Z,26.45
2023-03-06T13:37:25.535Z,26.63
2023-03-06T13:40:00.099Z,20.85
2023-03-06T13:42:33.053Z,21.58
2023-03-06T13:45:16.283Z,20.52
2023-03-06T13:50:50.102Z,22.17
2023-03-06T13:53:31.543Z,23.48
2023-03-06T13:56:22.132Z,28.55
2023-03-06T13:59:28.261Z,21.02
2023-03-06T14:02:30.446Z,19.10
2023-03-06T14:05:00.390Z,26.08
2023-03-06T14:07:34.148Z,24.77
2023-03-06T14:10:24.074Z,32.88
2023-03-06T14:12:59.057Z,22.52
2023-03-06T14:15:51.037Z,24.88
2023-03-06T14:18:38.621Z,23.67
2023-03-06T14:21:13.541Z,27.73
2023-03-06T14:23:43.711Z,25.73
2023-03-06T14:26:19.501Z,25.27
2023-03-06T14:28:57.138Z,24.90
2023-03-06T14:31:38.004Z,24.77
2023-03-06T14:34:29.290Z,23.95
2023-03-06T14:37:08.385Z,25.08
2023-03-06T14:39:40.067Z,23.20
2023-03-06T14:42:26.134Z,22.60
2023-03-06T14:45:05.966Z,26.73
2023-03-06T14:47:36.884Z,26.98
2023-03-06T14:50:28.785Z,21.77
2023-03-06T14:53:05.207Z,23.77
2023-03-06T14:55:35.630Z,24.98
2023-03-06T14:58:11.564Z,21.58
2023-03-06T15:00:44.170Z,24.58
2023-03-06T15:03:26.998Z,21.92
2023-03-06T15:05:55.863Z,24.88
2023-03-06T15:08:30.442Z,23.35
2023-03-06T15:11:04.783Z,22.98
2023-03-06T15:13:34.274Z,26.08
2023-03-06T15:16:13.425Z,27.73
2023-03-06T15:19:03.530Z,26.05
2023-03-06T15:21:38.875Z,24.35
2023-03-06T15:24:35.876Z,22.23
2023-03-06T15:27:07.027Z,28.80
2023-03-06T15:29:38.343Z,24.05
2023-03-06T15:32:34.441Z,20.63
2023-03-06T15:35:34.253Z,25.90
2023-03-06T15:38:04.680Z,23.55
2023-03-06T15:40:33.441Z,23.27
2023-03-06T15:43:02.218Z,23.38
2023-03-06T15:45:32.301Z,22.55
2023-03-06T15:48:03.026Z,26.67
2023-03-06T15:50:31.603Z,24.10
2023-03-06T15:53:00.346Z,22.48
2023-03-06T15:55:29.007Z,21.15
2023-03-06T15:58:00.030Z,22.85
2023-03-06T16:00:41.123Z,21.35
2023-03-06T16:03:10.880Z,19.75
2023-03-06T16:05:39.442Z,25.42
2023-03-06T16:08:09.813Z,22.70
2023-03-06T16:10:39.662Z,18.08
2023-03-06T16:13:14.071Z,15.70
2023-03-06T16:15:50.109Z,18.60
2023-03-06T16:18:19.131Z,16.73
2023-03-06T16:20:47.693Z,16.27
2023-03-06T16:23:16.873Z,19.02
2023-03-06T16:25:47.530Z,17.27
2023-03-06T16:28:17.504Z,18.55
2023-03-06T16:30:46.115Z,16.38
2023-03-06T16:33:15.388Z,28.13
2023-03-06T16:35:46.798Z,17.02
2023-03-06T16:38:16.212Z,17.73
2023-03-06T16:40:44.831Z,18.55
2023-03-06T16:43:15.808Z,15.70
2023-03-06T16:45:44.322Z,19.60
2023-03-06T16:48:17.173Z,15.23
2023-03-06T16:50:45.793Z,14.50
2023-03-06T16:53:15.564Z,17.95
2023-03-06T16:55:44.050Z,16.27
2023-03-06T16:58:13.030Z,19.05
2023-03-06T17:00:41.731Z,14.02
2023-03-06T17:03:10.495Z,18.88
2023-03-06T17:05:38.984Z,13.60
2023-03-06T17:08:07.688Z,19.45
2023-03-06T17:10:36.193Z,16.17
2023-03-06T17:13:07.600Z,15.98
2023-03-06T17:15:36.259Z,17.85
2023-03-06T17:18:05.660Z,16.13
2023-03-06T17:20:34.179Z,13.93
2023-03-06T17:23:03.389Z,18.63
2023-03-06T17:25:31.925Z,16.63
2023-03-06T17:28:00.791Z,15.85
2023-03-06T17:30:29.221Z,14.27
2023-03-06T17:32:58.482Z,21.67
2023-03-06T17:35:26.980Z,15.93
2023-03-06T17:37:59.744Z,16.60
2023-03-06T17:40:28.341Z,19.50
2023-03-06T17:42:57.177Z,25.00
2023-03-06T17:45:25.696Z,17.08
2023-03-06T17:47:55.821Z,22.95
2023-03-06T17:50:24.392Z,18.30
2023-03-06T17:52:53.368Z,17.60
2023-03-06T17:55:21.931Z,21.25
2023-03-06T17:57:52.621Z,23.75
2023-03-06T18:00:23.186Z,22.50
2023-03-06T18:02:51.931Z,21.30
2023-03-06T18:05:22.019Z,19.98
2023-03-06T18:07:51.149Z,24.52
2023-03-06T18:10:19.783Z,17.83
2023-03-06T18:12:48.831Z,29.75
2023-03-06T18:15:17.565Z,22.33
2023-03-06T18:17:46.595Z,21.75
2023-03-06T18:20:15.271Z,24.85
2023-03-06T18:22:44.513Z,24.55
2023-03-06T18:25:12.909Z,24.27
2023-03-06T18:27:41.867Z,26.70
2023-03-06T18:30:11.449Z,21.27
2023-03-06T18:32:40.563Z,21.02
2023-03-06T18:35:09.682Z,28.83
2023-03-06T18:37:38.765Z,25.60
2023-03-06T18:40:08.286Z,26.52
2023-03-06T18:42:37.201Z,27.40
2023-03-06T18:45:06.630Z,24.90
2023-03-06T18:47:35.614Z,28.90
2023-03-06T18:50:04.664Z,24.42
2023-03-06T18:52:35.081Z,30.38
2023-03-06T18:55:04.153Z,32.38
2023-03-06T18:57:32.980Z,30.95
2023-03-06T19:00:01.841Z,30.77
2023-03-06T19:02:30.782Z,33.20
2023-03-06T19:04:59.504Z,32.30
2023-03-06T19:07:29.194Z,30.80
2023-03-06T19:09:57.640Z,36.13
2023-03-06T19:12:26.481Z,36.88
2023-03-06T19:14:54.985Z,36.60
2023-03-06T19:17:25.077Z,43.25
2023-03-06T19:19:55.576Z,42.33
2023-03-06T19:22:24.484Z,40.72
2023-03-06T19:24:53.164Z,42.92
2023-03-06T19:27:22.537Z,38.35
2023-03-06T19:29:50.888Z,41.08
2023-03-06T19:32:19.972Z,39.28
2023-03-06T19:34:51.495Z,47.15
2023-03-06T19:37:20.298Z,42.80
2023-03-06T19:39:48.694Z,43.28
2023-03-06T19:42:17.842Z,42.40
2023-03-06T19:44:46.370Z,41.78
2023-03-06T19:47:15.105Z,42.03
2023-03-06T19:49:43.485Z,41.10
2023-03-06T19:52:12.151Z,37.72
2023-03-06T19:54:40.693Z,39.92
2023-03-06T19:57:09.547Z,45.42
2023-03-06T19:59:37.957Z,43.35
2023-03-06T20:02:07.097Z,41.95
2023-03-06T20:04:35.828Z,39.28
2023-03-06T20:07:07.504Z,39.90
2023-03-06T20:09:36.163Z,41.90
2023-03-06T20:12:07.809Z,41.40
2023-03-06T20:14:38.326Z,47.17
2023-03-06T20:17:08.149Z,38.95
2023-03-06T20:19:37.141Z,41.22
2023-03-06T20:22:05.968Z,41.92
2023-03-06T20:24:34.586Z,45.03
2023-03-06T20:27:04.135Z,48.25
2023-03-06T20:29:32.601Z,40.65
2023-03-06T20:32:01.395Z,42.97
2023-03-06T20:34:29.933Z,43.55
2023-03-06T20:36:58.600Z,43.45
2023-03-06T20:39:27.084Z,46.63
2023-03-06T20:41:56.129Z,46.17
2023-03-06T20:44:24.792Z,46.25
2023-03-06T20:46:53.707Z,41.17
2023-03-06T20:49:22.409Z,41.78
2023-03-06T20:51:51.409Z,41.67
2023-03-06T20:54:19.747Z,41.08
2023-03-06T20:56:48.992Z,32.90
2023-03-06T20:59:17.466Z,41.67
2023-03-06T21:01:48.092Z,39.30
2023-03-06T21:04:16.788Z,39.80
2023-03-06T21:06:47.077Z,42.53
2023-03-06T21:09:16.792Z,45.72
2023-03-06T21:11:45.796Z,38.72
2023-03-06T21:14:14.670Z,37.20
2023-03-06T21:16:43.478Z,36.90
2023-03-06T21:19:11.951Z,35.63
2023-03-06T21:21:40.671Z,37.15
2023-03-06T21:24:09.262Z,45.92
2023-03-06T21:26:38.020Z,39.95
2023-03-06T21:29:06.348Z,33.85
2023-03-06T21:31:35.060Z,36.70
2023-03-06T21:34:05.067Z,36.63
2023-03-06T21:36:34.433Z,40.25
2023-03-06T21:39:06.489Z,34.55
2023-03-06T21:41:35.239Z,38.00
2023-03-06T21:44:05.268Z,44.22
2023-03-06T21:46:34.234Z,35.60
2023-03-06T21:49:04.402Z,32.03
2023-03-06T21:51:33.571Z,39.40
2023-03-06T21:54:03.110Z,34.67
2023-03-06T21:56:33.731Z,30.25
2023-03-06T21:59:02.280Z,34.45
2023-03-06T22:01:31.314Z,40.03
2023-03-06T22:04:00.353Z,38.00
2023-03-06T22:06:30.388Z,40.55
2023-03-06T22:08:59.746Z,30.23
2023-03-06T22:11:31.555Z,37.08
2023-03-06T22:14:00.387Z,34.42
2023-03-06T22:16:29.549Z,31.23
2023-03-06T22:18:58.110Z,33.47
2023-03-06T22:21:26.998Z,34.25
2023-03-06T22:24:00.374Z,36.05
2023-03-06T22:26:29.605Z,32.45
2023-03-06T22:28:58.046Z,31.80
2023-03-06T22:31:28.680Z,32.00
2023-03-06T22:33:59.996Z,35.38
2023-03-06T22:36:30.984Z,31.33
2023-03-06T22:39:01.544Z,38.55
2023-03-06T22:41:30.778Z,30.98
2023-03-06T22:44:00.571Z,36.58
2023-03-06T22:47:26.963Z,31.70
2023-03-06T22:49:55.406Z,32.17
2023-03-06T22:52:24.145Z,30.98
2023-03-06T22:54:52.567Z,33.42
2023-03-06T22:57:21.398Z,37.03
2023-03-06T22:59:49.853Z,30.13
2023-03-06T23:02:18.756Z,34.67
2023-03-06T23:04:52.497Z,28.38
2023-03-06T23:07:21.339Z,31.00
2023-03-06T23:09:50.710Z,33.05
2023-03-06T23:12:38.369Z,31.55
2023-03-06T23:15:25.622Z,30.23
2023-03-06T23:18:13.170Z,32.55
2023-03-06T23:21:00.492Z,30.80
2023-03-06T23:23:49.917Z,32.03
2023-03-06T23:26:20.327Z,31.10
2023-03-06T23:28:49.572Z,31.42
2023-03-06T23:31:30.299Z,36.80
2023-03-06T23:34:03.122Z,37.60
2023-03-06T23:36:31.914Z,35.35
2023-03-06T23:39:01.247Z,31.50
2023-03-06T23:41:30.233Z,31.00
2023-03-06T23:43:59.551Z,29.77
2023-03-06T23:46:28.267Z,31.40
2023-03-06T23:48:57.185Z,33.70
2023-03-06T23:51:25.763Z,35.40
2023-03-06T23:53:57.652Z,33.17
2023-03-06T23:56:27.687Z,32.47
2023-03-06T23:58:56.735Z,31.70
